createdAt,value
2023-03-10T00:00:28.056Z,3.24
2023-03-10T00:01:00.540Z,3.27
2023-03-10T00:01:32.997Z,3.25
2023-03-10T00:02:05.526Z,3.27
2023-03-10T00:02:38.043Z,3.28
2023-03-10T00:03:10.593Z,3.27
2023-03-10T00:03:43.084Z,3.27
2023-03-10T00:04:15.632Z,3.28
2023-03-10T00:04:48.063Z,3.28
2023-03-10T00:05:20.572Z,3.30
2023-03-10T00:05:53.040Z,3.27
2023-03-10T00:06:25.495Z,3.27
2023-03-10T00:06:58.014Z,3.24
2023-03-10T00:07:30.495Z,3.25
2023-03-10T00:08:03.043Z,3.28
2023-03-10T00:08:35.496Z,3.28
2023-03-10T00:09:07.976Z,3.28
2023-03-10T00:09:40.479Z,3.27
2023-03-10T00:10:12.954Z,3.28
2023-03-10T00:10:45.470Z,3.30
2023-03-10T00:11:17.937Z,3.28
2023-03-10T00:11:50.422Z,3.31
2023-03-10T00:12:22.917Z,3.30
2023-03-10T00:12:55.388Z,3.30
2023-03-10T00:13:27.970Z,3.30
2023-03-10T00:14:00.442Z,3.33
2023-03-10T00:14:32.988Z,3.36
2023-03-10T00:15:05.471Z,3.40
2023-03-10T00:15:38.052Z,3.40
2023-03-10T00:16:10.589Z,3.42
2023-03-10T00:16:42.945Z,3.42
2023-03-10T00:17:15.436Z,3.44
2023-03-10T00:17:47.910Z,3.43
2023-03-10T00:18:20.388Z,3.44
2023-03-10T00:18:52.924Z,3.46
2023-03-10T00:19:25.427Z,3.44
2023-03-10T00:19:57.892Z,3.46
2023-03-10T00:20:30.390Z,3.47
2023-03-10T00:21:02.911Z,3.49
2023-03-10T00:21:35.410Z,3.49
2023-03-10T00:22:07.927Z,3.47
2023-03-10T00:22:40.421Z,3.50
2023-03-10T00:23:12.909Z,3.52
2023-03-10T00:23:45.426Z,3.52
2023-03-10T00:24:17.869Z,3.52
2023-03-10T00:24:50.315Z,3.50
2023-03-10T00:25:22.766Z,3.52
2023-03-10T00:25:55.270Z,3.52
2023-03-10T00:26:27.711Z,3.52
2023-03-10T00:27:00.195Z,3.53
2023-03-10T00:27:32.710Z,3.54
2023-03-10T00:28:05.200Z,3.53
2023-03-10T00:28:37.699Z,3.57
2023-03-10T00:29:10.148Z,3.58
2023-03-10T00:29:42.616Z,3.58
2023-03-10T00:30:15.089Z,3.60
2023-03-10T00:30:47.561Z,3.58
2023-03-10T00:31:20.104Z,3.58
2023-03-10T00:31:52.535Z,3.61
2023-03-10T00:32:25.067Z,3.60
2023-03-10T00:32:57.505Z,3.61
2023-03-10T00:33:29.963Z,3.64
2023-03-10T00:34:02.439Z,3.61
2023-03-10T00:34:34.917Z,3.62
2023-03-10T00:35:07.388Z,3.61
2023-03-10T00:35:39.972Z,3.61
2023-03-10T00:36:12.420Z,3.61
2023-03-10T00:36:44.844Z,3.64
2023-03-10T00:37:17.420Z,3.61
2023-03-10T00:37:49.916Z,3.62
2023-03-10T00:38:22.371Z,3.61
2023-03-10T00:38:54.868Z,3.64
2023-03-10T00:39:27.341Z,3.64
2023-03-10T00:39:59.830Z,3.65
2023-03-10T00:40:32.305Z,3.65
2023-03-10T00:41:04.812Z,3.64
2023-03-10T00:41:37.375Z,3.65
2023-03-10T00:42:09.871Z,3.68
2023-03-10T00:42:42.324Z,3.62
2023-03-10T00:43:14.797Z,3.61
2023-03-10T00:43:47.249Z,3.61
2023-03-10T00:44:19.760Z,3.62
2023-03-10T00:44:52.210Z,3.62
2023-03-10T00:45:24.704Z,3.65
2023-03-10T00:45:57.213Z,3.65
2023-03-10T00:46:29.669Z,3.67
2023-03-10T00:47:02.105Z,3.67
2023-03-10T00:47:34.640Z,3.68
2023-03-10T00:48:07.079Z,3.68
2023-03-10T00:48:39.567Z,3.70
2023-03-10T00:49:12.013Z,3.68
2023-03-10T00:49:44.468Z,3.68
2023-03-10T00:50:16.980Z,3.71
2023-03-10T00:50:49.430Z,3.71
2023-03-10T00:51:21.931Z,3.72
2023-03-10T00:51:54.402Z,3.75
2023-03-10T00:52:26.873Z,3.72
2023-03-10T00:52:59.416Z,3.71
2023-03-10T00:53:31.886Z,3.72
2023-03-10T00:54:04.360Z,3.70
2023-03-10T00:54:36.828Z,3.70
2023-03-10T00:55:09.328Z,3.72
2023-03-10T00:55:41.783Z,3.71
2023-03-10T00:56:14.414Z,3.76
2023-03-10T00:56:46.912Z,3.75
2023-03-10T00:57:19.382Z,3.78
2023-03-10T00:57:51.857Z,3.78
2023-03-10T00:58:24.330Z,3.76
2023-03-10T00:58:56.773Z,3.76
2023-03-10T00:59:32.868Z,3.76
2023-03-10T01:00:01.777Z,3.78
2023-03-10T01:00:34.390Z,3.78
2023-03-10T01:01:06.886Z,3.79
2023-03-10T01:01:39.493Z,3.80
2023-03-10T01:02:11.851Z,3.80
2023-03-10T01:02:44.360Z,3.80
2023-03-10T01:03:16.814Z,3.82
2023-03-10T01:03:49.298Z,3.82
2023-03-10T01:04:21.778Z,3.82
2023-03-10T01:04:54.218Z,3.85
2023-03-10T01:05:26.668Z,3.83
2023-03-10T01:05:59.171Z,3.85
2023-03-10T01:06:31.631Z,3.83
2023-03-10T01:07:04.106Z,3.85
2023-03-10T01:07:36.793Z,3.83
2023-03-10T01:08:09.305Z,3.83
2023-03-10T01:08:41.815Z,3.85
2023-03-10T01:09:14.262Z,3.86
2023-03-10T01:09:46.764Z,3.89
2023-03-10T01:10:19.217Z,3.89
2023-03-10T01:10:51.688Z,3.92
2023-03-10T01:11:24.127Z,3.96
2023-03-10T01:11:56.589Z,3.94
2023-03-10T01:12:29.056Z,3.96
2023-03-10T01:13:01.510Z,3.97
2023-03-10T01:13:33.958Z,3.98
2023-03-10T01:14:06.471Z,3.98
2023-03-10T01:14:38.939Z,4.00
2023-03-10T01:15:11.420Z,4.01
2023-03-10T01:15:43.929Z,4.01
2023-03-10T01:16:16.442Z,4.01
2023-03-10T01:16:48.811Z,4.04
2023-03-10T01:17:21.267Z,4.04
2023-03-10T01:17:53.778Z,4.06
2023-03-10T01:18:26.292Z,4.06
2023-03-10T01:18:58.777Z,4.06
2023-03-10T01:19:31.261Z,4.07
2023-03-10T01:20:03.755Z,4.08
2023-03-10T01:20:36.231Z,4.10
2023-03-10T01:21:08.731Z,4.15
2023-03-10T01:21:41.234Z,4.12
2023-03-10T01:22:13.736Z,4.14
2023-03-10T01:22:46.261Z,4.15
2023-03-10T01:23:18.731Z,4.16
2023-03-10T01:23:51.192Z,4.18
2023-03-10T01:24:23.664Z,4.18
2023-03-10T01:24:56.145Z,4.18
2023-03-10T01:25:28.632Z,4.19
2023-03-10T01:26:01.143Z,4.21
2023-03-10T01:26:33.607Z,4.22
2023-03-10T01:27:06.065Z,4.22
2023-03-10T01:27:38.522Z,4.19
2023-03-10T01:28:10.990Z,4.21
2023-03-10T01:28:43.497Z,4.19
2023-03-10T01:29:16.083Z,4.18
2023-03-10T01:29:48.580Z,4.16
2023-03-10T01:30:21.059Z,4.14
2023-03-10T01:30:53.559Z,4.14
2023-03-10T01:31:25.987Z,4.14
2023-03-10T01:31:58.452Z,4.15
2023-03-10T01:32:30.935Z,4.15
2023-03-10T01:33:03.407Z,4.18
2023-03-10T01:33:35.886Z,4.18
2023-03-10T01:34:08.357Z,4.18
2023-03-10T01:34:40.839Z,4.19
2023-03-10T01:35:13.302Z,4.21
2023-03-10T01:35:45.783Z,4.24
2023-03-10T01:36:18.288Z,4.24
2023-03-10T01:36:50.692Z,4.26
2023-03-10T01:37:23.178Z,4.29
2023-03-10T01:37:55.647Z,4.29
2023-03-10T01:38:28.144Z,4.33
2023-03-10T01:39:00.655Z,4.34
2023-03-10T01:39:33.161Z,4.34
2023-03-10T01:40:05.644Z,4.33
2023-03-10T01:40:38.128Z,4.32
2023-03-10T01:41:10.654Z,4.26
2023-03-10T01:41:43.166Z,4.29
2023-03-10T01:42:15.688Z,4.28
2023-03-10T01:42:48.174Z,4.32
2023-03-10T01:43:20.677Z,4.28
2023-03-10T01:43:53.306Z,4.29
2023-03-10T01:44:25.778Z,4.28
2023-03-10T01:44:58.307Z,4.33
2023-03-10T01:45:30.776Z,4.29
2023-03-10T01:46:03.265Z,4.34
2023-03-10T01:46:35.791Z,4.34
2023-03-10T01:47:08.219Z,4.37
2023-03-10T01:47:40.725Z,4.37
2023-03-10T01:48:13.287Z,4.37
2023-03-10T01:48:45.791Z,4.36
2023-03-10T01:49:18.289Z,4.36
2023-03-10T01:49:50.782Z,4.39
2023-03-10T01:50:23.249Z,4.39
2023-03-10T01:50:55.770Z,4.37
2023-03-10T01:51:28.262Z,4.40
2023-03-10T01:52:00.791Z,4.40
2023-03-10T01:52:33.393Z,4.40
2023-03-10T01:53:05.869Z,4.42
2023-03-10T01:53:38.358Z,4.43
2023-03-10T01:54:10.855Z,4.43
2023-03-10T01:54:43.357Z,4.43
2023-03-10T01:55:15.815Z,4.44
2023-03-10T01:55:48.305Z,4.50
2023-03-10T01:56:20.794Z,4.51
2023-03-10T01:56:53.217Z,4.54
2023-03-10T01:57:25.668Z,4.55
2023-03-10T01:57:58.153Z,4.55
2023-03-10T01:58:30.614Z,4.55
2023-03-10T01:59:03.101Z,4.55
2023-03-10T01:59:35.634Z,4.54
2023-03-10T02:00:08.103Z,4.55
2023-03-10T02:00:40.610Z,4.57
2023-03-10T02:01:13.102Z,4.58
2023-03-10T02:01:45.555Z,4.57
2023-03-10T02:02:18.042Z,4.57
2023-03-10T02:02:50.473Z,4.57
2023-03-10T02:03:22.959Z,4.58
2023-03-10T02:03:55.498Z,4.59
2023-03-10T02:04:27.998Z,4.59
2023-03-10T02:05:00.471Z,4.61
2023-03-10T02:05:32.952Z,4.61
2023-03-10T02:06:05.422Z,4.62
2023-03-10T02:06:37.946Z,4.62
2023-03-10T02:07:10.447Z,4.62
2023-03-10T02:07:42.909Z,4.65
2023-03-10T02:08:15.399Z,4.64
2023-03-10T02:08:47.880Z,4.69
2023-03-10T02:09:20.347Z,4.69
2023-03-10T02:09:52.818Z,4.70
2023-03-10T02:10:25.306Z,4.70
2023-03-10T02:10:57.743Z,4.72
2023-03-10T02:11:30.240Z,4.69
2023-03-10T02:12:02.782Z,4.72
2023-03-10T02:12:35.252Z,4.67
2023-03-10T02:13:07.738Z,4.65
2023-03-10T02:13:40.225Z,4.62
2023-03-10T02:14:12.781Z,4.57
2023-03-10T02:14:45.254Z,4.46
2023-03-10T02:15:17.726Z,4.43
2023-03-10T02:15:50.212Z,4.40
2023-03-10T02:16:22.733Z,4.37
2023-03-10T02:16:55.302Z,4.33
2023-03-10T02:17:27.809Z,4.33
2023-03-10T02:18:00.250Z,4.32
2023-03-10T02:18:32.735Z,4.32
2023-03-10T02:19:05.234Z,4.32
2023-03-10T02:19:37.671Z,4.33
2023-03-10T02:20:10.140Z,4.32
2023-03-10T02:20:42.591Z,4.33
2023-03-10T02:21:15.101Z,4.33
2023-03-10T02:21:47.617Z,4.34
2023-03-10T02:22:20.083Z,4.36
2023-03-10T02:22:52.528Z,4.33
2023-03-10T02:23:25.044Z,4.29
2023-03-10T02:24:01.489Z,4.32
2023-03-10T02:24:30.006Z,4.29
2023-03-10T02:25:02.483Z,4.26
2023-03-10T02:25:34.947Z,4.24
2023-03-10T02:26:07.411Z,4.22
2023-03-10T02:26:39.850Z,4.19
2023-03-10T02:27:12.310Z,4.19
2023-03-10T02:27:44.762Z,4.19
2023-03-10T02:28:17.215Z,4.18
2023-03-10T02:28:49.691Z,4.18
2023-03-10T02:29:22.146Z,4.16
2023-03-10T02:29:59.135Z,4.12
2023-03-10T02:30:27.078Z,4.10
2023-03-10T02:30:59.522Z,4.07
2023-03-10T02:31:32.092Z,4.07
2023-03-10T02:32:04.572Z,4.04
2023-03-10T02:32:37.023Z,4.04
2023-03-10T02:33:09.532Z,4.01
2023-03-10T02:33:42.080Z,4.03
2023-03-10T02:34:14.535Z,4.00
2023-03-10T02:34:47.033Z,4.01
2023-03-10T02:35:19.470Z,4.01
2023-03-10T02:35:52.096Z,4.01
2023-03-10T02:36:24.458Z,3.98
2023-03-10T02:36:56.921Z,4.01
2023-03-10T02:37:29.390Z,4.03
2023-03-10T02:38:01.925Z,4.03
2023-03-10T02:38:34.382Z,4.01
2023-03-10T02:39:06.857Z,4.00
2023-03-10T02:39:39.294Z,3.98
2023-03-10T02:40:11.767Z,3.97
2023-03-10T02:40:44.236Z,3.94
2023-03-10T02:41:16.675Z,3.96
2023-03-10T02:41:49.115Z,3.96
2023-03-10T02:42:21.572Z,3.96
2023-03-10T02:42:54.047Z,3.94
2023-03-10T02:43:26.510Z,3.97
2023-03-10T02:43:59.021Z,3.97
2023-03-10T02:44:31.493Z,3.92
2023-03-10T02:45:04.017Z,3.94
2023-03-10T02:45:36.568Z,3.96
2023-03-10T02:46:09.076Z,3.97
2023-03-10T02:46:41.431Z,3.98
2023-03-10T02:47:13.892Z,3.96
2023-03-10T02:47:46.340Z,3.97
2023-03-10T02:48:18.854Z,3.97
2023-03-10T02:48:51.434Z,3.96
2023-03-10T02:49:23.911Z,3.94
2023-03-10T02:49:56.403Z,3.96
2023-03-10T02:50:28.878Z,3.97
2023-03-10T02:51:01.335Z,3.96
2023-03-10T02:51:33.800Z,3.94
2023-03-10T02:52:06.275Z,3.97
2023-03-10T02:52:38.774Z,3.94
2023-03-10T02:53:11.273Z,3.94
2023-03-10T02:53:43.778Z,3.94
2023-03-10T02:54:16.313Z,3.94
2023-03-10T02:54:48.771Z,3.96
2023-03-10T02:55:21.235Z,3.94
2023-03-10T02:55:53.706Z,3.90
2023-03-10T02:56:26.185Z,3.94
2023-03-10T02:56:58.656Z,3.94
2023-03-10T02:57:31.128Z,3.96
2023-03-10T02:58:03.596Z,3.96
2023-03-10T02:58:36.071Z,3.94
2023-03-10T02:59:08.556Z,3.97
2023-03-10T02:59:41.038Z,3.97
2023-03-10T03:00:13.507Z,3.96
2023-03-10T03:00:46.072Z,3.97
2023-03-10T03:01:18.588Z,3.97
2023-03-10T03:01:50.955Z,3.96
2023-03-10T03:02:23.429Z,3.96
2023-03-10T03:02:55.874Z,3.94
2023-03-10T03:03:28.359Z,3.94
2023-03-10T03:04:00.853Z,3.89
2023-03-10T03:04:33.281Z,3.88
2023-03-10T03:05:05.756Z,3.86
2023-03-10T03:05:38.307Z,3.88
2023-03-10T03:06:10.771Z,3.85
2023-03-10T03:06:43.237Z,3.88
2023-03-10T03:07:15.700Z,3.86
2023-03-10T03:07:48.169Z,3.88
2023-03-10T03:08:20.642Z,3.88
2023-03-10T03:08:53.227Z,3.89
2023-03-10T03:09:25.696Z,3.89
2023-03-10T03:09:58.139Z,3.88
2023-03-10T03:10:30.689Z,3.90
2023-03-10T03:11:03.126Z,3.89
2023-03-10T03:11:35.591Z,3.92
2023-03-10T03:12:08.049Z,3.94
2023-03-10T03:12:40.523Z,3.94
2023-03-10T03:13:13.032Z,3.96
2023-03-10T03:13:45.516Z,3.97
2023-03-10T03:14:19.519Z,3.97
2023-03-10T03:14:50.451Z,3.98
2023-03-10T03:15:22.930Z,3.97
2023-03-10T03:15:55.440Z,3.98
2023-03-10T03:16:27.934Z,3.97
2023-03-10T03:17:00.510Z,3.96
2023-03-10T03:17:32.803Z,3.97
2023-03-10T03:18:05.282Z,3.98
2023-03-10T03:18:37.750Z,3.98
2023-03-10T03:19:10.228Z,4.01
2023-03-10T03:19:42.754Z,4.00
2023-03-10T03:20:15.228Z,4.01
2023-03-10T03:20:47.678Z,4.04
2023-03-10T03:21:20.169Z,4.06
2023-03-10T03:21:52.647Z,4.03
2023-03-10T03:22:25.113Z,4.04
2023-03-10T03:22:57.615Z,4.04
2023-03-10T03:23:30.083Z,4.04
2023-03-10T03:24:02.541Z,4.04
2023-03-10T03:24:35.064Z,4.07
2023-03-10T03:25:07.524Z,4.07
2023-03-10T03:25:40.049Z,4.07
2023-03-10T03:26:12.561Z,4.07
2023-03-10T03:26:45.043Z,4.06
2023-03-10T03:27:17.655Z,4.07
2023-03-10T03:27:50.153Z,4.07
2023-03-10T03:28:22.700Z,4.10
2023-03-10T03:28:55.167Z,4.12
2023-03-10T03:29:27.688Z,4.12
2023-03-10T03:30:00.212Z,4.12
2023-03-10T03:30:34.149Z,4.12
2023-03-10T03:31:06.631Z,4.12
2023-03-10T03:31:39.120Z,4.12
2023-03-10T03:32:11.679Z,4.12
2023-03-10T03:32:44.038Z,4.12
2023-03-10T03:33:16.475Z,4.08
2023-03-10T03:33:48.935Z,4.07
2023-03-10T03:34:21.443Z,4.04
2023-03-10T03:34:53.892Z,4.06
2023-03-10T03:35:26.401Z,4.06
2023-03-10T03:35:58.868Z,4.06
2023-03-10T03:36:31.274Z,4.08
2023-03-10T03:37:03.742Z,4.10
2023-03-10T03:37:36.200Z,4.14
2023-03-10T03:38:08.696Z,4.16
2023-03-10T03:38:41.150Z,4.18
2023-03-10T03:39:13.690Z,4.21
2023-03-10T03:39:46.206Z,4.21
2023-03-10T03:40:18.574Z,4.24
2023-03-10T03:40:51.039Z,4.26
2023-03-10T03:41:23.483Z,4.29
2023-03-10T03:41:55.944Z,4.32
2023-03-10T03:42:28.449Z,4.33
2023-03-10T03:43:00.918Z,4.34
2023-03-10T03:43:33.375Z,4.36
2023-03-10T03:44:05.857Z,4.37
2023-03-10T03:44:38.339Z,4.37
2023-03-10T03:45:10.804Z,4.42
2023-03-10T03:45:43.304Z,4.40
2023-03-10T03:46:15.849Z,4.42
2023-03-10T03:46:48.191Z,4.42
2023-03-10T03:47:20.637Z,4.43
2023-03-10T03:47:53.105Z,4.43
2023-03-10T03:48:25.554Z,4.43
2023-03-10T03:48:58.009Z,4.44
2023-03-10T03:49:30.524Z,4.43
2023-03-10T03:50:02.967Z,4.43
2023-03-10T03:50:35.425Z,4.40
2023-03-10T03:51:07.922Z,4.42
2023-03-10T03:51:40.375Z,4.42
2023-03-10T03:52:12.856Z,4.40
2023-03-10T03:52:45.326Z,4.39
2023-03-10T03:53:17.780Z,4.34
2023-03-10T03:53:50.269Z,4.34
2023-03-10T03:54:22.790Z,4.33
2023-03-10T03:54:55.273Z,4.33
2023-03-10T03:55:27.727Z,4.33
2023-03-10T03:56:00.184Z,4.34
2023-03-10T03:56:32.672Z,4.34
2023-03-10T03:57:05.138Z,4.36
2023-03-10T03:57:37.602Z,4.36
2023-03-10T03:58:10.100Z,4.39
2023-03-10T03:58:42.598Z,4.36
2023-03-10T03:59:15.080Z,4.36
2023-03-10T03:59:47.558Z,4.33
2023-03-10T04:00:20.054Z,4.29
2023-03-10T04:00:52.496Z,4.32
2023-03-10T04:01:25.020Z,4.33
2023-03-10T04:01:57.563Z,4.37
2023-03-10T04:02:30.048Z,4.37
2023-03-10T04:03:02.425Z,4.39
2023-03-10T04:03:34.925Z,4.43
2023-03-10T04:04:07.388Z,4.43
2023-03-10T04:04:39.892Z,4.43
2023-03-10T04:05:12.379Z,4.42
2023-03-10T04:05:44.841Z,4.46
2023-03-10T04:06:17.311Z,4.46
2023-03-10T04:06:49.810Z,4.50
2023-03-10T04:07:22.309Z,4.47
2023-03-10T04:07:54.827Z,4.50
2023-03-10T04:08:27.276Z,4.47
2023-03-10T04:08:59.758Z,4.46
2023-03-10T04:09:32.263Z,4.43
2023-03-10T04:10:04.788Z,4.44
2023-03-10T04:10:37.206Z,4.44
2023-03-10T04:11:09.706Z,4.50
2023-03-10T04:11:42.173Z,4.51
2023-03-10T04:12:14.632Z,4.52
2023-03-10T04:12:47.103Z,4.57
2023-03-10T04:13:19.554Z,4.59
2023-03-10T04:13:52.060Z,4.62
2023-03-10T04:14:24.503Z,4.64
2023-03-10T04:14:56.977Z,4.64
2023-03-10T04:15:29.490Z,4.67
2023-03-10T04:16:01.991Z,4.65
2023-03-10T04:16:34.425Z,4.69
2023-03-10T04:17:06.901Z,4.70
2023-03-10T04:17:39.372Z,4.70
2023-03-10T04:18:11.919Z,4.70
2023-03-10T04:18:44.378Z,4.72
2023-03-10T04:19:16.851Z,4.72
2023-03-10T04:20:00.721Z,4.73
2023-03-10T04:20:21.784Z,4.72
2023-03-10T04:20:54.268Z,4.73
2023-03-10T04:21:26.722Z,4.75
2023-03-10T04:21:59.176Z,4.75
2023-03-10T04:22:31.620Z,4.75
2023-03-10T04:23:04.155Z,4.75
2023-03-10T04:23:36.614Z,4.73
2023-03-10T04:24:09.075Z,4.76
2023-03-10T04:24:41.520Z,4.76
2023-03-10T04:25:13.996Z,4.77
2023-03-10T04:25:46.454Z,4.76
2023-03-10T04:26:18.921Z,4.73
2023-03-10T04:26:51.378Z,4.67
2023-03-10T04:27:23.856Z,4.59
2023-03-10T04:27:56.309Z,4.57
2023-03-10T04:28:28.777Z,4.51
2023-03-10T04:29:01.244Z,4.44
2023-03-10T04:29:33.690Z,4.43
2023-03-10T04:30:06.153Z,4.34
2023-03-10T04:30:38.614Z,4.32
2023-03-10T04:31:11.144Z,4.25
2023-03-10T04:31:46.533Z,4.21
2023-03-10T04:32:16.060Z,4.18
2023-03-10T04:32:49.389Z,4.14
2023-03-10T04:33:20.952Z,4.14
2023-03-10T04:33:53.467Z,4.14
2023-03-10T04:34:25.919Z,4.15
2023-03-10T04:34:58.402Z,4.19
2023-03-10T04:35:30.852Z,4.16
2023-03-10T04:36:03.372Z,4.16
2023-03-10T04:36:35.774Z,4.14
2023-03-10T04:37:08.275Z,4.14
2023-03-10T04:37:40.735Z,4.16
2023-03-10T04:38:13.216Z,4.18
2023-03-10T04:38:45.682Z,4.21
2023-03-10T04:39:18.213Z,4.22
2023-03-10T04:39:50.718Z,4.22
2023-03-10T04:40:23.188Z,4.24
2023-03-10T04:40:55.645Z,4.25
2023-03-10T04:41:28.115Z,4.28
2023-03-10T04:42:00.585Z,4.29
2023-03-10T04:42:33.046Z,4.32
2023-03-10T04:43:05.542Z,4.29
2023-03-10T04:43:37.993Z,4.32
2023-03-10T04:44:24.372Z,4.34
2023-03-10T04:44:42.951Z,4.36
2023-03-10T04:45:15.396Z,4.36
2023-03-10T04:45:47.857Z,4.40
2023-03-10T04:46:20.388Z,4.44
2023-03-10T04:46:52.831Z,4.47
2023-03-10T04:47:25.317Z,4.47
2023-03-10T04:47:57.759Z,4.51
2023-03-10T04:48:30.277Z,4.52
2023-03-10T04:49:02.705Z,4.54
2023-03-10T04:49:35.175Z,4.54
2023-03-10T04:50:07.649Z,4.58
2023-03-10T04:50:40.128Z,4.59
2023-03-10T04:51:12.585Z,4.59
2023-03-10T04:51:45.089Z,4.59
2023-03-10T04:52:17.552Z,4.58
2023-03-10T04:52:50.068Z,4.57
2023-03-10T04:53:22.506Z,4.58
2023-03-10T04:53:54.984Z,4.58
2023-03-10T04:54:27.474Z,4.58
2023-03-10T04:54:59.950Z,4.59
2023-03-10T04:55:32.430Z,4.59
2023-03-10T04:56:04.952Z,4.57
2023-03-10T04:56:37.424Z,4.54
2023-03-10T04:57:09.878Z,4.51
2023-03-10T04:57:42.362Z,4.52
2023-03-10T04:58:14.851Z,4.51
2023-03-10T04:58:47.336Z,4.51
2023-03-10T04:59:19.787Z,4.50
2023-03-10T04:59:52.277Z,4.51
2023-03-10T05:00:24.829Z,4.47
2023-03-10T05:01:03.085Z,4.46
2023-03-10T05:01:29.695Z,4.47
2023-03-10T05:02:02.227Z,4.50
2023-03-10T05:02:34.628Z,4.51
2023-03-10T05:03:07.090Z,4.51
2023-03-10T05:03:39.666Z,4.51
2023-03-10T05:04:12.136Z,4.52
2023-03-10T05:04:44.681Z,4.54
2023-03-10T05:05:17.067Z,4.55
2023-03-10T05:05:49.525Z,4.55
2023-03-10T05:06:21.989Z,4.55
2023-03-10T05:06:54.461Z,4.57
2023-03-10T05:07:26.926Z,4.55
2023-03-10T05:07:59.380Z,4.51
2023-03-10T05:08:31.932Z,4.47
2023-03-10T05:09:04.380Z,4.46
2023-03-10T05:09:36.896Z,4.44
2023-03-10T05:10:09.361Z,4.43
2023-03-10T05:10:41.819Z,4.40
2023-03-10T05:11:14.317Z,4.37
2023-03-10T05:11:46.781Z,4.34
2023-03-10T05:12:19.248Z,4.28
2023-03-10T05:12:51.699Z,4.24
2023-03-10T05:13:24.165Z,4.18
2023-03-10T05:13:56.620Z,4.14
2023-03-10T05:14:29.083Z,4.08
2023-03-10T05:15:01.548Z,4.08
2023-03-10T05:15:34.027Z,4.08
2023-03-10T05:16:06.499Z,4.08
2023-03-10T05:16:38.952Z,4.12
2023-03-10T05:17:11.407Z,4.15
2023-03-10T05:17:43.869Z,4.15
2023-03-10T05:18:16.345Z,4.19
2023-03-10T05:18:48.796Z,4.18
2023-03-10T05:19:21.250Z,4.21
2023-03-10T05:19:53.708Z,4.21
2023-03-10T05:20:26.196Z,4.24
2023-03-10T05:20:58.654Z,4.24
2023-03-10T05:21:31.111Z,4.26
2023-03-10T05:22:03.570Z,4.29
2023-03-10T05:22:36.057Z,4.32
2023-03-10T05:23:08.536Z,4.28
2023-03-10T05:23:41.019Z,4.29
2023-03-10T05:24:13.463Z,4.29
2023-03-10T05:24:45.968Z,4.29
2023-03-10T05:25:18.472Z,4.29
2023-03-10T05:25:50.928Z,4.28
2023-03-10T05:26:23.418Z,4.25
2023-03-10T05:26:55.913Z,4.19
2023-03-10T05:27:28.390Z,4.08
2023-03-10T05:28:00.859Z,4.03
2023-03-10T05:28:33.325Z,3.98
2023-03-10T05:29:05.784Z,3.97
2023-03-10T05:29:38.245Z,3.97
2023-03-10T05:30:10.695Z,3.98
2023-03-10T05:30:43.165Z,4.01
2023-03-10T05:31:15.773Z,4.03
2023-03-10T05:31:48.331Z,4.06
2023-03-10T05:32:20.691Z,4.07
2023-03-10T05:32:53.178Z,4.10
2023-03-10T05:33:25.581Z,4.14
2023-03-10T05:33:58.081Z,4.10
2023-03-10T05:34:30.550Z,4.06
2023-03-10T05:35:03.075Z,3.96
2023-03-10T05:35:35.616Z,3.90
2023-03-10T05:36:08.176Z,3.85
2023-03-10T05:36:40.517Z,3.80
2023-03-10T05:37:13.067Z,3.78
2023-03-10T05:37:45.541Z,3.75
2023-03-10T05:38:18.021Z,3.70
2023-03-10T05:38:50.466Z,3.70
2023-03-10T05:39:22.937Z,3.68
2023-03-10T05:39:55.425Z,3.70
2023-03-10T05:40:27.904Z,3.70
2023-03-10T05:41:00.413Z,3.72
2023-03-10T05:41:32.874Z,3.75
2023-03-10T05:42:05.349Z,3.78
2023-03-10T05:42:48.499Z,3.80
2023-03-10T05:43:20.952Z,3.83
2023-03-10T05:43:53.392Z,3.85
2023-03-10T05:44:25.884Z,3.83
2023-03-10T05:44:58.378Z,3.83
2023-03-10T05:45:30.861Z,3.79
2023-03-10T05:46:03.373Z,3.76
2023-03-10T05:46:35.925Z,3.76
2023-03-10T05:47:09.280Z,3.76
2023-03-10T05:47:41.890Z,3.76
2023-03-10T05:48:14.380Z,3.75
2023-03-10T05:48:46.833Z,3.78
2023-03-10T05:49:19.388Z,3.78
2023-03-10T05:49:51.849Z,3.78
2023-03-10T05:50:24.353Z,3.78
2023-03-10T05:50:56.823Z,3.78
2023-03-10T05:51:29.349Z,3.78
2023-03-10T05:52:01.769Z,3.75
2023-03-10T05:52:34.238Z,3.70
2023-03-10T05:53:06.712Z,3.68
2023-03-10T05:53:39.164Z,3.65
2023-03-10T05:54:11.597Z,3.61
2023-03-10T05:54:44.038Z,3.60
2023-03-10T05:55:16.504Z,3.58
2023-03-10T05:55:48.934Z,3.57
2023-03-10T05:56:21.396Z,3.54
2023-03-10T05:56:53.816Z,3.54
2023-03-10T05:57:26.307Z,3.57
2023-03-10T05:57:58.763Z,3.58
2023-03-10T05:58:31.223Z,3.61
2023-03-10T05:59:03.644Z,3.62
2023-03-10T05:59:36.101Z,3.65
2023-03-10T06:00:08.558Z,3.65
2023-03-10T06:00:41.047Z,3.67
2023-03-10T06:01:13.685Z,3.65
2023-03-10T06:01:45.970Z,3.67
2023-03-10T06:02:18.417Z,3.64
2023-03-10T06:02:50.911Z,3.60
2023-03-10T06:03:23.520Z,3.57
2023-03-10T06:03:55.982Z,3.57
2023-03-10T06:04:28.514Z,3.54
2023-03-10T06:05:00.966Z,3.58
2023-03-10T06:05:33.439Z,3.60
2023-03-10T06:06:05.905Z,3.64
2023-03-10T06:06:38.376Z,3.65
2023-03-10T06:07:10.820Z,3.65
2023-03-10T06:07:43.315Z,3.65
2023-03-10T06:08:15.752Z,3.65
2023-03-10T06:08:48.184Z,3.62
2023-03-10T06:09:20.601Z,3.64
2023-03-10T06:09:53.067Z,3.67
2023-03-10T06:10:25.518Z,3.70
2023-03-10T06:10:57.983Z,3.71
2023-03-10T06:11:30.460Z,3.71
2023-03-10T06:12:02.911Z,3.72
2023-03-10T06:12:35.374Z,3.78
2023-03-10T06:13:07.816Z,3.79
2023-03-10T06:13:40.324Z,3.79
2023-03-10T06:14:12.821Z,3.82
2023-03-10T06:14:45.301Z,3.83
2023-03-10T06:15:17.765Z,3.83
2023-03-10T06:15:50.310Z,3.80
2023-03-10T06:16:22.808Z,3.76
2023-03-10T06:16:55.302Z,3.76
2023-03-10T06:17:27.815Z,3.72
2023-03-10T06:18:00.329Z,3.71
2023-03-10T06:18:32.846Z,3.71
2023-03-10T06:19:05.320Z,3.75
2023-03-10T06:19:37.795Z,3.75
2023-03-10T06:20:10.316Z,3.75
2023-03-10T06:20:42.760Z,3.78
2023-03-10T06:21:15.195Z,3.79
2023-03-10T06:21:47.665Z,3.80
2023-03-10T06:22:20.148Z,3.85
2023-03-10T06:22:52.636Z,3.85
2023-03-10T06:23:25.083Z,3.83
2023-03-10T06:23:57.577Z,3.83
2023-03-10T06:24:30.056Z,3.85
2023-03-10T06:25:02.502Z,3.83
2023-03-10T06:25:34.962Z,3.80
2023-03-10T06:26:07.388Z,3.80
2023-03-10T06:26:39.856Z,3.80
2023-03-10T06:27:12.299Z,3.80
2023-03-10T06:27:44.766Z,3.80
2023-03-10T06:28:17.211Z,3.80
2023-03-10T06:28:49.699Z,3.82
2023-03-10T06:29:22.187Z,3.83
2023-03-10T06:29:54.617Z,3.85
2023-03-10T06:30:27.070Z,3.80
2023-03-10T06:30:59.508Z,3.79
2023-03-10T06:31:31.989Z,3.71
2023-03-10T06:32:04.457Z,3.64
2023-03-10T06:32:36.918Z,3.61
2023-03-10T06:33:09.372Z,3.60
2023-03-10T06:33:41.829Z,3.61
2023-03-10T06:34:14.284Z,3.64
2023-03-10T06:34:47.415Z,3.64
2023-03-10T06:35:19.869Z,3.68
2023-03-10T06:35:52.392Z,3.67
2023-03-10T06:36:24.812Z,3.70
2023-03-10T06:36:57.254Z,3.68
2023-03-10T06:37:29.742Z,3.68
2023-03-10T06:38:02.192Z,3.67
2023-03-10T06:38:34.672Z,3.65
2023-03-10T06:39:07.139Z,3.64
2023-03-10T06:39:39.636Z,3.64
2023-03-10T06:40:12.149Z,3.67
2023-03-10T06:40:44.645Z,3.68
2023-03-10T06:41:17.106Z,3.68
2023-03-10T06:41:49.591Z,3.65
2023-03-10T06:42:22.116Z,3.65
2023-03-10T06:42:54.577Z,3.61
2023-03-10T06:43:27.046Z,3.58
2023-03-10T06:44:00.275Z,3.57
2023-03-10T06:44:32.741Z,3.52
2023-03-10T06:45:05.216Z,3.50
2023-03-10T06:45:37.713Z,3.47
2023-03-10T06:46:10.214Z,3.47
2023-03-10T06:46:42.692Z,3.50
2023-03-10T06:47:15.154Z,3.50
2023-03-10T06:47:47.594Z,3.52
2023-03-10T06:48:20.050Z,3.58
2023-03-10T06:48:52.497Z,3.60
2023-03-10T06:49:24.924Z,3.62
2023-03-10T06:49:57.354Z,3.64
2023-03-10T06:50:31.551Z,3.67
2023-03-10T06:51:02.310Z,3.70
2023-03-10T06:51:34.794Z,3.72
2023-03-10T06:52:07.288Z,3.72
2023-03-10T06:52:39.825Z,3.75
2023-03-10T06:53:12.319Z,3.76
2023-03-10T06:53:44.782Z,3.78
2023-03-10T06:54:17.222Z,3.72
2023-03-10T06:54:49.698Z,3.70
2023-03-10T06:55:22.189Z,3.71
2023-03-10T06:55:54.657Z,3.72
2023-03-10T06:56:27.126Z,3.72
2023-03-10T06:56:59.637Z,3.71
2023-03-10T06:57:32.136Z,3.72
2023-03-10T06:58:04.610Z,3.75
2023-03-10T06:58:37.115Z,3.72
2023-03-10T06:59:09.566Z,3.70
2023-03-10T06:59:42.051Z,3.64
2023-03-10T07:00:14.536Z,3.64
2023-03-10T07:00:47.023Z,3.60
2023-03-10T07:01:19.522Z,3.60
2023-03-10T07:01:51.959Z,3.61
2023-03-10T07:02:24.412Z,3.60
2023-03-10T07:02:56.857Z,3.58
2023-03-10T07:03:29.348Z,3.57
2023-03-10T07:04:01.775Z,3.54
2023-03-10T07:04:34.285Z,3.54
2023-03-10T07:05:06.779Z,3.52
2023-03-10T07:05:39.149Z,3.53
2023-03-10T07:06:11.610Z,3.53
2023-03-10T07:06:44.086Z,3.53
2023-03-10T07:07:16.581Z,3.57
2023-03-10T07:07:49.054Z,3.58
2023-03-10T07:08:21.532Z,3.57
2023-03-10T07:08:54.002Z,3.58
2023-03-10T07:09:26.463Z,3.57
2023-03-10T07:09:58.915Z,3.58
2023-03-10T07:10:31.410Z,3.58
2023-03-10T07:11:03.882Z,3.58
2023-03-10T07:11:36.351Z,3.61
2023-03-10T07:12:08.817Z,3.61
2023-03-10T07:12:41.316Z,3.62